F\v Desperado — FVFQ — position and weather

sailwx.info

Track history (hours):
 
Tides and Currents Weather Stations Pressure Air Temp Water Temp Dewpoint Dewpoint Depression Visibility Wind Speed Wind Dir Waves Ship Positions

F\v Desperado

Last reported at 2016-Apr-28 05:31 UTC. Time now 2016-Apr-28 19:54 UTC.
Position N 46°24' W 002°15'.

Type: Fishing. MMSI: 228312000.

Date/timePositionNaut miles runAvg speedWind from/ knotsBaromVisibWave heightAir tempDewpointWater temp
2016-Apr-28 05:31N 46°24' W 002°15'8 8.2
2016-Apr-28 04:33N 46°26' W 002°04'8 8.2
2016-Apr-28 03:33N 46°27' W 001°52'4 4.3
2016-Apr-28 02:33N 46°30' W 001°47'0 0.0
2016-Apr-28 01:33N 46°30' W 001°47'0 0.0
2016-Apr-28 00:33N 46°30' W 001°47'0 0.0
2016-Apr-27 23:33N 46°30' W 001°47'0 0.0
2016-Apr-27 22:33N 46°30' W 001°47'6 5.7
2016-Apr-27 21:33N 46°25' W 001°53'13 0.6
2016-Apr-27 00:33N 46°20' W 002°09'9 8.7
2016-Apr-26 23:33N 46°24' W 001°58'9 8.7
2016-Apr-26 22:33N 46°28' W 001°47'1 1.5
2016-Apr-26 21:33N 46°30' W 001°47'0 0.3
2016-Apr-26 20:33N 46°30' W 001°48'7 6.9
2016-Apr-26 19:32N 46°25' W 001°55'10 0.3
2016-Apr-25 04:22N 46°18' W 002°07'7 8.0
2016-Apr-25 03:33N 46°22' W 001°59'8 8.0
2016-Apr-25 02:33N 46°27' W 001°50'4 3.6
2016-Apr-25 01:33N 46°30' W 001°47'1 1.1
2016-Apr-25 00:33N 46°29' W 001°47'2 2.3
2016-Apr-24 23:34N 46°27' W 001°49'14 0.3
2016-Apr-23 04:28N 46°20' W 002°06'7 7.9
2016-Apr-23 03:33N 46°24' W 001°57'8 7.7
2016-Apr-23 02:33N 46°28' W 001°48'2 2.1
2016-Apr-23 01:33N 46°30' W 001°47'3 2.8
2016-Apr-23 00:34N 46°27' W 001°49'17 0.5
2016-Apr-21 15:34N 46°18' W 002°09'8 8.2
2016-Apr-21 14:33N 46°23' W 001°60'8 7.9
2016-Apr-21 13:33N 46°28' W 001°50'3 2.9
2016-Apr-21 12:33N 46°30' W 001°47'0 0.0
2016-Apr-21 11:34N 46°30' W 001°47'0 0.0
2016-Apr-21 10:34N 46°30' W 001°47'0 0.0
2016-Apr-21 09:33N 46°30' W 001°47'0 0.0
2016-Apr-21 08:34N 46°30' W 001°47'0 0.0
2016-Apr-21 07:33N 46°30' W 001°47'0 0.0
2016-Apr-21 06:33N 46°30' W 001°47'0 0.0
2016-Apr-21 05:33N 46°30' W 001°47'0 0.0
2016-Apr-21 04:33N 46°30' W 001°47'0 0.1
2016-Apr-21 03:34N 46°30' W 001°47'0 0.2
2016-Apr-21 02:34N 46°30' W 001°47'0 0.0
2016-Apr-21 01:34N 46°30' W 001°47'0 0.3
2016-Apr-21 00:33N 46°30' W 001°48'8 7.5
2016-Apr-20 23:33N 46°25' W 001°56'10 0.5
2016-Apr-20 04:33N 46°25' W 002°11'9 8.5
2016-Apr-20 03:33N 46°26' W 001°59'8 8.1
2016-Apr-20 02:33N 46°29' W 001°47'1 1.2
2016-Apr-20 01:34N 46°30' W 001°47'0 0.0
2016-Apr-20 00:33N 46°30' W 001°47'0 0.0
2016-Apr-19 23:33N 46°30' W 001°47'4 4.2
2016-Apr-19 22:33N 46°27' W 001°52'36 2.4
2016-Apr-19 07:33N 46°16' W 002°42'10 3.2
2016-Apr-19 04:32N 46°23' W 002°32'12 8.7
2016-Apr-19 03:12N 46°24' W 002°15'6 8.5
2016-Apr-19 02:30N 46°26' W 002°07'8 8.5
2016-Apr-19 01:34N 46°27' W 001°55'6 6.3
2016-Apr-19 00:33N 46°30' W 001°47'0 0.0
2016-Apr-18 23:33N 46°30' W 001°47'3 2.9
2016-Apr-18 22:34N 46°28' W 001°49'9 8.3
2016-Apr-18 21:29N 46°23' W 002°01'  
Track history (hours):
 
Tides and Currents Weather Stations Pressure Air Temp Water Temp Dewpoint Dewpoint Depression Visibility Wind Speed Wind Dir Waves Ship Positions

F\v Desperado

Last reported at 2016-Apr-28 05:31 UTC. Time now 2016-Apr-28 19:54 UTC.
Position N 46°24' W 002°15'.

Type: Fishing. MMSI: 228312000.

Date/timePositionNaut miles runAvg speedWind from/ knotsBaromVisibWave heightAir tempDewpointWater temp
2016-Apr-28 05:31N 46°24' W 002°15'8 8.2
2016-Apr-28 04:33N 46°26' W 002°04'8 8.2
2016-Apr-28 03:33N 46°27' W 001°52'4 4.3
2016-Apr-28 02:33N 46°30' W 001°47'0 0.0
2016-Apr-28 01:33N 46°30' W 001°47'0 0.0
2016-Apr-28 00:33N 46°30' W 001°47'0 0.0
2016-Apr-27 23:33N 46°30' W 001°47'0 0.0
2016-Apr-27 22:33N 46°30' W 001°47'6 5.7
2016-Apr-27 21:33N 46°25' W 001°53'13 0.6
2016-Apr-27 00:33N 46°20' W 002°09'9 8.7
2016-Apr-26 23:33N 46°24' W 001°58'9 8.7
2016-Apr-26 22:33N 46°28' W 001°47'1 1.5
2016-Apr-26 21:33N 46°30' W 001°47'0 0.3
2016-Apr-26 20:33N 46°30' W 001°48'7 6.9
2016-Apr-26 19:32N 46°25' W 001°55'10 0.3
2016-Apr-25 04:22N 46°18' W 002°07'7 8.0
2016-Apr-25 03:33N 46°22' W 001°59'8 8.0
2016-Apr-25 02:33N 46°27' W 001°50'4 3.6
2016-Apr-25 01:33N 46°30' W 001°47'1 1.1
2016-Apr-25 00:33N 46°29' W 001°47'2 2.3
2016-Apr-24 23:34N 46°27' W 001°49'14 0.3
2016-Apr-23 04:28N 46°20' W 002°06'7 7.9
2016-Apr-23 03:33N 46°24' W 001°57'8 7.7
2016-Apr-23 02:33N 46°28' W 001°48'2 2.1
2016-Apr-23 01:33N 46°30' W 001°47'3 2.8
2016-Apr-23 00:34N 46°27' W 001°49'17 0.5
2016-Apr-21 15:34N 46°18' W 002°09'8 8.2
2016-Apr-21 14:33N 46°23' W 001°60'8 7.9
2016-Apr-21 13:33N 46°28' W 001°50'3 2.9
2016-Apr-21 12:33N 46°30' W 001°47'0 0.0
2016-Apr-21 11:34N 46°30' W 001°47'0 0.0
2016-Apr-21 10:34N 46°30' W 001°47'0 0.0
2016-Apr-21 09:33N 46°30' W 001°47'0 0.0
2016-Apr-21 08:34N 46°30' W 001°47'0 0.0
2016-Apr-21 07:33N 46°30' W 001°47'0 0.0
2016-Apr-21 06:33N 46°30' W 001°47'0 0.0
2016-Apr-21 05:33N 46°30' W 001°47'0 0.0
2016-Apr-21 04:33N 46°30' W 001°47'0 0.1
2016-Apr-21 03:34N 46°30' W 001°47'0 0.2
2016-Apr-21 02:34N 46°30' W 001°47'0 0.0
2016-Apr-21 01:34N 46°30' W 001°47'0 0.3
2016-Apr-21 00:33N 46°30' W 001°48'8 7.5
2016-Apr-20 23:33N 46°25' W 001°56'10 0.5
2016-Apr-20 04:33N 46°25' W 002°11'9 8.5
2016-Apr-20 03:33N 46°26' W 001°59'8 8.1
2016-Apr-20 02:33N 46°29' W 001°47'1 1.2
2016-Apr-20 01:34N 46°30' W 001°47'0 0.0
2016-Apr-20 00:33N 46°30' W 001°47'0 0.0
2016-Apr-19 23:33N 46°30' W 001°47'4 4.2
2016-Apr-19 22:33N 46°27' W 001°52'36 2.4
2016-Apr-19 07:33N 46°16' W 002°42'10 3.2
2016-Apr-19 04:32N 46°23' W 002°32'12 8.7
2016-Apr-19 03:12N 46°24' W 002°15'6 8.5
2016-Apr-19 02:30N 46°26' W 002°07'8 8.5
2016-Apr-19 01:34N 46°27' W 001°55'6 6.3
2016-Apr-19 00:33N 46°30' W 001°47'0 0.0
2016-Apr-18 23:33N 46°30' W 001°47'3 2.9
2016-Apr-18 22:34N 46°28' W 001°49'9 8.3
2016-Apr-18 21:29N 46°23' W 002°01'  

Dump ship's entire track history